Mystic, Connecticut
Current Conditions -  °F | °C
As of 9:56 AM on Monday 29 Dec 2014 (Local Time) from KGON Reporting Station
Clear Clear  
Wind Chill: 31°   Ceiling: Unl
Heat Index: 36°   Visibility: 10mi
Dew Point: 25°   Wind: 6mph
Humidity: 64%   Direction: 290°WNW
Pressure: 30.19"   Gusts: NA
Location:  41.36°N, 71.95°W
Report Text: KGON 291456Z 29005KT 10SM CLR 02/M04 A3019 RMK AO2 SLP221 T00221039 53015
Loading
Personal Weather Stations






























Interactive Weather Map New forecast layout! Learn more

10-Day Weather Forecast

Advertisements
Track Severe Weather on mobile